createdAt,value
2018-12-21T00:00:58.415Z,79.01
2018-12-21T00:03:27.093Z,79.02
2018-12-21T00:05:55.787Z,78.61
2018-12-21T00:08:24.384Z,78.26
2018-12-21T00:10:53.049Z,78.50
2018-12-21T00:13:21.930Z,78.92
2018-12-21T00:15:50.677Z,78.29
2018-12-21T00:18:19.647Z,79.12
2018-12-21T00:20:48.315Z,78.27
2018-12-21T00:23:16.968Z,77.99
2018-12-21T00:25:45.619Z,78.74
2018-12-21T00:28:14.224Z,78.61
2018-12-21T00:30:41.996Z,78.57
2018-12-21T00:33:15.927Z,79.27
2018-12-21T00:35:49.928Z,78.84
2018-12-21T00:38:23.728Z,78.22
2018-12-21T00:40:57.922Z,79.07
2018-12-21T00:43:41.779Z,79.42
2018-12-21T00:46:16.675Z,79.48
2018-12-21T00:48:45.572Z,79.27
2018-12-21T00:51:14.240Z,78.47
2018-12-21T00:53:42.917Z,78.90
2018-12-21T00:56:11.644Z,78.55
2018-12-21T00:58:40.420Z,78.76
2018-12-21T01:01:09.160Z,78.89
2018-12-21T01:03:37.912Z,78.28
2018-12-21T01:06:06.772Z,77.59
2018-12-21T01:08:35.585Z,78.15
2018-12-21T01:11:04.379Z,77.69
2018-12-21T01:13:32.992Z,77.55
2018-12-21T01:16:01.715Z,77.34
2018-12-21T01:18:30.356Z,77.52
2018-12-21T01:20:59.134Z,77.36
2018-12-21T01:23:27.835Z,77.75
2018-12-21T01:25:56.565Z,77.17
2018-12-21T01:28:25.176Z,78.29
2018-12-21T01:30:53.871Z,77.99
2018-12-21T01:33:22.652Z,77.80
2018-12-21T01:35:51.312Z,78.12
2018-12-21T01:38:20.011Z,77.14
2018-12-21T01:40:48.692Z,77.32
2018-12-21T01:43:17.304Z,77.71
2018-12-21T01:45:46.011Z,77.67
2018-12-21T01:48:14.732Z,77.45
2018-12-21T01:50:43.665Z,77.56
2018-12-21T01:53:12.262Z,77.10
2018-12-21T01:55:40.995Z,77.83
2018-12-21T01:58:09.597Z,77.60
2018-12-21T02:00:38.237Z,78.11
2018-12-21T02:03:07.171Z,78.03
2018-12-21T02:05:35.867Z,78.12
2018-12-21T02:08:04.629Z,78.38
2018-12-21T02:10:33.361Z,78.80
2018-12-21T02:13:01.991Z,77.58
2018-12-21T02:15:30.604Z,78.23
2018-12-21T02:17:59.216Z,78.45
2018-12-21T02:20:27.872Z,78.01
2018-12-21T02:22:56.524Z,78.78
2018-12-21T02:25:25.231Z,78.07
2018-12-21T02:27:53.825Z,78.20
2018-12-21T02:30:22.464Z,78.18
2018-12-21T02:32:51.098Z,78.57
2018-12-21T02:35:19.737Z,78.36
2018-12-21T02:37:48.610Z,78.36
2018-12-21T02:40:17.259Z,79.03
2018-12-21T02:42:45.864Z,78.39
2018-12-21T02:45:14.471Z,78.67
2018-12-21T02:47:43.333Z,77.64
2018-12-21T02:50:11.950Z,78.28
2018-12-21T02:52:40.714Z,78.70
2018-12-21T02:55:09.367Z,78.65
2018-12-21T02:57:38.163Z,77.95
2018-12-21T03:00:08.393Z,78.51
2018-12-21T03:02:37.053Z,77.16
2018-12-21T03:05:06.092Z,77.53
2018-12-21T03:07:34.670Z,77.45
2018-12-21T03:10:04.009Z,77.92
2018-12-21T03:12:32.626Z,77.91
2018-12-21T03:15:01.264Z,78.04
2018-12-21T03:17:30.068Z,78.47
2018-12-21T03:19:58.731Z,78.50
2018-12-21T03:22:27.623Z,78.52
2018-12-21T03:24:56.303Z,78.19
2018-12-21T03:27:24.946Z,78.57
2018-12-21T03:29:53.572Z,78.77
2018-12-21T03:32:22.194Z,78.77
2018-12-21T03:34:51.009Z,78.70
2018-12-21T03:37:19.701Z,78.40
2018-12-21T03:39:48.352Z,78.29
2018-12-21T03:42:17.121Z,78.37
2018-12-21T03:44:45.793Z,78.16
2018-12-21T03:47:14.403Z,78.37
2018-12-21T03:49:43.269Z,77.95
2018-12-21T03:52:11.881Z,77.87
2018-12-21T03:54:40.495Z,78.32
2018-12-21T03:57:09.315Z,77.89
2018-12-21T03:59:37.968Z,77.42
2018-12-21T04:02:06.631Z,78.39
2018-12-21T04:04:35.407Z,77.67
2018-12-21T04:07:04.035Z,77.35
2018-12-21T04:09:32.910Z,76.72
2018-12-21T04:12:01.556Z,77.77
2018-12-21T04:14:30.302Z,76.75
2018-12-21T04:16:58.889Z,76.43
2018-12-21T04:19:27.499Z,76.07
2018-12-21T04:21:56.108Z,77.11
2018-12-21T04:24:24.745Z,75.90
2018-12-21T04:26:53.421Z,76.53
2018-12-21T04:29:22.019Z,76.17
2018-12-21T04:31:50.692Z,75.83
2018-12-21T04:34:19.372Z,75.52
2018-12-21T04:36:48.035Z,76.36
2018-12-21T04:39:17.119Z,76.65
2018-12-21T04:41:45.717Z,75.84
2018-12-21T04:44:14.332Z,75.49
2018-12-21T04:46:43.019Z,77.07
2018-12-21T04:49:11.720Z,76.64
2018-12-21T04:51:40.415Z,75.93
2018-12-21T04:54:09.048Z,76.73
2018-12-21T04:56:37.755Z,76.09
2018-12-21T04:59:06.377Z,76.40
2018-12-21T05:01:34.972Z,76.58
2018-12-21T05:04:03.710Z,77.18
2018-12-21T05:06:32.305Z,76.95
2018-12-21T05:09:00.903Z,76.36
2018-12-21T05:11:29.583Z,76.79
2018-12-21T05:13:58.464Z,76.94
2018-12-21T05:16:27.110Z,77.25
2018-12-21T05:18:55.771Z,76.51
2018-12-21T05:21:24.491Z,76.92
2018-12-21T05:23:53.219Z,76.52
2018-12-21T05:26:21.891Z,76.99
2018-12-21T05:28:50.511Z,76.73
2018-12-21T05:31:28.209Z,76.42
2018-12-21T05:33:53.043Z,76.90
2018-12-21T05:36:21.667Z,76.38
2018-12-21T05:38:50.306Z,76.94
2018-12-21T05:41:19.032Z,76.37
2018-12-21T05:43:47.744Z,76.89
2018-12-21T05:46:16.455Z,76.25
2018-12-21T05:48:45.087Z,76.58
2018-12-21T05:51:13.685Z,76.78
2018-12-21T05:53:42.311Z,77.05
2018-12-21T05:56:10.956Z,77.45
2018-12-21T05:58:39.659Z,76.31
2018-12-21T06:01:08.271Z,76.46
2018-12-21T06:03:37.521Z,76.73
2018-12-21T06:06:06.203Z,77.05
2018-12-21T06:08:34.819Z,77.11
2018-12-21T06:11:03.487Z,77.11
2018-12-21T06:13:32.115Z,77.39
2018-12-21T06:16:00.712Z,76.81
2018-12-21T06:18:29.420Z,76.75
2018-12-21T06:20:58.006Z,76.66
2018-12-21T06:23:26.663Z,76.37
2018-12-21T06:25:55.288Z,76.37
2018-12-21T06:28:24.023Z,76.11
2018-12-21T06:30:52.642Z,76.26
2018-12-21T06:33:21.307Z,75.91
2018-12-21T06:35:50.069Z,76.12
2018-12-21T06:38:18.771Z,75.55
2018-12-21T06:40:47.391Z,76.20
2018-12-21T06:43:16.023Z,76.78
2018-12-21T06:45:44.701Z,76.29
2018-12-21T06:48:13.651Z,76.57
2018-12-21T06:50:42.258Z,76.22
2018-12-21T06:53:17.882Z,76.54
2018-12-21T06:55:41.742Z,76.13
2018-12-21T06:58:10.635Z,75.47
2018-12-21T07:00:39.420Z,75.84
2018-12-21T07:03:08.038Z,76.02
2018-12-21T07:05:36.727Z,75.71
2018-12-21T07:08:05.436Z,75.31
2018-12-21T07:10:34.092Z,75.57
2018-12-21T07:13:02.692Z,75.12
2018-12-21T07:15:31.355Z,74.31
2018-12-21T07:17:59.984Z,74.91
2018-12-21T07:20:28.571Z,75.29
2018-12-21T07:22:57.222Z,75.34
2018-12-21T07:25:25.925Z,75.67
2018-12-21T07:27:54.535Z,74.51
2018-12-21T07:30:23.191Z,74.86
2018-12-21T07:32:51.889Z,74.37
2018-12-21T07:35:20.574Z,74.89
2018-12-21T07:37:49.216Z,74.65
2018-12-21T07:40:17.913Z,74.39
2018-12-21T07:42:46.539Z,74.59
2018-12-21T07:45:15.281Z,74.45
2018-12-21T07:47:43.929Z,75.19
2018-12-21T07:50:12.548Z,74.87
2018-12-21T07:52:41.271Z,74.87
2018-12-21T07:55:10.564Z,74.77
2018-12-21T07:57:39.267Z,74.71
2018-12-21T08:00:11.070Z,74.31
2018-12-21T08:02:39.883Z,74.29
2018-12-21T08:05:08.933Z,74.55
2018-12-21T08:07:37.697Z,73.73
2018-12-21T08:10:11.939Z,73.48
2018-12-21T08:12:40.563Z,74.44
2018-12-21T08:15:09.240Z,72.93
2018-12-21T08:17:37.848Z,73.31
2018-12-21T08:20:08.004Z,73.60
2018-12-21T08:22:36.667Z,73.13
2018-12-21T08:25:06.472Z,74.01
2018-12-21T08:27:35.075Z,74.29
2018-12-21T08:30:03.964Z,73.05
2018-12-21T08:32:32.715Z,73.14
2018-12-21T08:35:01.348Z,73.71
2018-12-21T08:37:29.954Z,74.15
2018-12-21T08:39:58.533Z,74.38
2018-12-21T08:42:27.274Z,74.59
2018-12-21T08:44:56.369Z,75.05
2018-12-21T08:47:24.987Z,76.17
2018-12-21T08:49:53.644Z,75.96
2018-12-21T08:52:22.324Z,76.72
2018-12-21T08:54:50.918Z,77.91
2018-12-21T08:57:19.667Z,78.80
2018-12-21T08:59:48.298Z,79.74
2018-12-21T09:02:17.076Z,78.90
2018-12-21T09:04:46.000Z,79.58
2018-12-21T09:07:14.679Z,79.60
2018-12-21T09:09:43.335Z,80.08
2018-12-21T09:12:11.943Z,80.45
2018-12-21T09:14:40.685Z,80.53
2018-12-21T09:17:09.413Z,81.92
2018-12-21T09:19:38.081Z,82.15
2018-12-21T09:22:06.691Z,82.13
2018-12-21T09:24:35.365Z,82.88
2018-12-21T09:27:04.307Z,82.96
2018-12-21T09:29:32.901Z,82.14
2018-12-21T09:32:05.190Z,83.06
2018-12-21T09:34:32.136Z,82.99
2018-12-21T09:37:00.756Z,83.88
2018-12-21T09:39:29.548Z,83.25
2018-12-21T09:41:58.167Z,83.91
2018-12-21T09:44:26.727Z,83.12
2018-12-21T09:46:55.882Z,83.64
2018-12-21T09:49:24.454Z,84.00
2018-12-21T09:51:53.098Z,84.45
2018-12-21T09:54:21.905Z,84.61
2018-12-21T09:56:50.490Z,84.11
2018-12-21T09:59:19.063Z,84.06
2018-12-21T10:01:47.839Z,84.81
2018-12-21T10:04:16.445Z,85.70
2018-12-21T10:06:45.064Z,85.71
2018-12-21T10:09:13.765Z,85.47
2018-12-21T10:11:42.498Z,84.74
2018-12-21T10:14:11.136Z,84.06
2018-12-21T10:16:39.855Z,85.32
2018-12-21T10:19:08.553Z,84.36
2018-12-21T10:21:38.420Z,84.16
2018-12-21T10:24:09.100Z,84.53
2018-12-21T10:26:37.787Z,84.03
2018-12-21T10:29:06.435Z,84.17
2018-12-21T10:31:35.940Z,84.48
2018-12-21T10:34:05.543Z,85.33
2018-12-21T10:36:35.173Z,84.12
2018-12-21T10:39:06.164Z,85.11
2018-12-21T10:41:35.699Z,85.19
2018-12-21T10:44:04.582Z,85.41
2018-12-21T10:46:33.241Z,84.47
2018-12-21T10:49:01.977Z,84.37
2018-12-21T10:51:30.786Z,85.01
2018-12-21T10:53:59.400Z,84.39
2018-12-21T10:56:28.208Z,84.43
2018-12-21T10:58:56.818Z,84.42
2018-12-21T11:01:25.565Z,84.87
2018-12-21T11:03:54.172Z,84.61
2018-12-21T11:06:22.888Z,84.37
2018-12-21T11:08:51.557Z,84.41
2018-12-21T11:11:20.291Z,84.33
2018-12-21T11:13:48.963Z,84.85
2018-12-21T11:16:18.023Z,84.54
2018-12-21T11:18:47.415Z,84.92
2018-12-21T11:21:17.196Z,84.26
2018-12-21T11:23:46.753Z,84.72
2018-12-21T11:26:16.367Z,84.94
2018-12-21T11:28:45.905Z,85.13
2018-12-21T11:31:14.593Z,85.09
2018-12-21T11:33:43.394Z,84.44
2018-12-21T11:36:12.043Z,84.31
2018-12-21T11:38:40.612Z,85.49
2018-12-21T11:41:09.295Z,84.47
2018-12-21T11:43:38.116Z,84.81
2018-12-21T11:46:06.750Z,84.57
2018-12-21T11:48:35.460Z,84.08
2018-12-21T11:51:04.139Z,84.68
2018-12-21T11:53:32.964Z,84.70
2018-12-21T11:56:01.760Z,85.07
2018-12-21T11:58:30.355Z,84.89
2018-12-21T12:00:59.137Z,84.12
2018-12-21T12:03:27.713Z,83.75
2018-12-21T12:05:56.354Z,84.18
2018-12-21T12:08:24.961Z,83.56
2018-12-21T12:10:53.832Z,83.65
2018-12-21T12:13:22.695Z,83.19
2018-12-21T12:15:51.319Z,82.88
2018-12-21T12:18:20.629Z,83.79
2018-12-21T12:20:49.463Z,82.53
2018-12-21T12:23:18.104Z,82.23
2018-12-21T12:25:46.739Z,82.84
2018-12-21T12:28:15.534Z,82.65
2018-12-21T12:30:44.697Z,82.67
2018-12-21T12:33:13.471Z,83.08
2018-12-21T12:35:42.360Z,82.47
2018-12-21T12:38:11.103Z,83.24
2018-12-21T12:40:39.820Z,83.82
2018-12-21T12:43:08.632Z,83.36
2018-12-21T12:45:37.331Z,83.43
2018-12-21T12:48:06.100Z,84.42
2018-12-21T12:50:34.707Z,84.00
2018-12-21T12:53:03.390Z,83.73
2018-12-21T12:55:32.029Z,84.01
2018-12-21T12:58:00.655Z,84.19
2018-12-21T13:00:29.348Z,84.22
2018-12-21T13:02:57.911Z,84.17
2018-12-21T13:05:26.526Z,84.27
2018-12-21T13:07:55.246Z,83.39
2018-12-21T13:10:23.843Z,83.08
2018-12-21T13:12:52.447Z,83.58
2018-12-21T13:15:21.077Z,82.78
2018-12-21T13:17:49.707Z,82.22
2018-12-21T13:20:18.516Z,83.02
2018-12-21T13:22:47.095Z,83.44
2018-12-21T13:25:15.707Z,82.68
2018-12-21T13:27:44.277Z,82.69
2018-12-21T13:30:12.930Z,82.61
2018-12-21T13:32:41.631Z,82.73
2018-12-21T13:35:10.319Z,82.91
2018-12-21T13:37:39.040Z,83.28
2018-12-21T13:40:11.439Z,83.32
2018-12-21T13:42:40.450Z,84.11
2018-12-21T13:45:10.810Z,83.67
2018-12-21T13:47:39.391Z,83.96
2018-12-21T13:50:11.530Z,83.85
2018-12-21T13:52:40.141Z,83.92
2018-12-21T13:55:08.875Z,84.93
2018-12-21T13:57:37.468Z,84.95
2018-12-21T14:00:08.029Z,85.68
2018-12-21T14:02:36.623Z,85.71
2018-12-21T14:05:06.467Z,85.73
2018-12-21T14:07:35.118Z,86.43
2018-12-21T14:10:05.240Z,86.94
2018-12-21T14:12:33.960Z,86.79
2018-12-21T14:15:02.634Z,86.56
2018-12-21T14:17:31.269Z,87.27
2018-12-21T14:19:59.882Z,87.99
2018-12-21T14:22:28.514Z,88.93
2018-12-21T14:24:57.175Z,88.77
2018-12-21T14:27:25.839Z,88.96
2018-12-21T14:29:54.666Z,89.22
2018-12-21T14:32:23.307Z,89.99
2018-12-21T14:34:51.948Z,90.38
2018-12-21T14:37:20.543Z,90.99
2018-12-21T14:39:49.184Z,90.34
2018-12-21T14:42:17.826Z,90.59
2018-12-21T14:44:47.592Z,90.64
2018-12-21T14:47:16.269Z,90.74
2018-12-21T14:49:44.967Z,90.64
2018-12-21T14:52:13.769Z,90.90
2018-12-21T14:54:42.391Z,90.54
2018-12-21T14:57:10.987Z,90.82
2018-12-21T14:59:39.645Z,90.72
2018-12-21T15:02:08.431Z,90.93
2018-12-21T15:04:37.131Z,91.44
2018-12-21T15:07:05.716Z,91.12
2018-12-21T15:09:34.351Z,90.24
2018-12-21T15:12:02.980Z,90.56
2018-12-21T15:14:31.672Z,90.08
2018-12-21T15:17:00.375Z,89.79
2018-12-21T15:19:29.025Z,90.71
2018-12-21T15:21:57.774Z,90.25
2018-12-21T15:24:26.379Z,90.65
2018-12-21T15:26:54.991Z,90.36
2018-12-21T15:29:23.640Z,90.34
2018-12-21T15:31:52.226Z,90.64
2018-12-21T15:34:20.811Z,90.36
2018-12-21T15:36:49.440Z,90.39
2018-12-21T15:39:18.166Z,90.70
2018-12-21T15:41:46.771Z,90.65
2018-12-21T15:44:15.487Z,90.16
2018-12-21T15:46:44.071Z,90.38
2018-12-21T15:49:12.656Z,90.35
2018-12-21T15:51:41.432Z,90.92
2018-12-21T15:54:10.177Z,90.12
2018-12-21T15:56:38.935Z,90.09
2018-12-21T15:59:07.577Z,90.48
2018-12-21T16:01:36.949Z,90.28
2018-12-21T16:04:06.222Z,89.86
2018-12-21T16:06:35.712Z,90.12
2018-12-21T16:09:07.331Z,90.21
2018-12-21T16:11:35.956Z,90.37
2018-12-21T16:14:04.776Z,91.04
2018-12-21T16:16:33.373Z,90.39
2018-12-21T16:19:02.029Z,90.67
2018-12-21T16:21:30.673Z,90.28
2018-12-21T16:24:06.664Z,90.24
2018-12-21T16:26:30.035Z,90.35
2018-12-21T16:28:58.695Z,90.50
2018-12-21T16:31:27.582Z,90.27
2018-12-21T16:33:56.179Z,90.11
2018-12-21T16:36:24.788Z,90.11
2018-12-21T16:38:53.411Z,89.52
2018-12-21T16:41:22.077Z,90.21
2018-12-21T16:43:50.705Z,89.46
2018-12-21T16:46:19.349Z,90.08
2018-12-21T16:48:48.053Z,90.01
2018-12-21T16:51:16.784Z,89.93
2018-12-21T16:53:45.540Z,89.35
2018-12-21T16:56:14.216Z,89.48
2018-12-21T16:58:42.925Z,88.82
2018-12-21T17:01:11.603Z,88.87
2018-12-21T17:03:40.215Z,89.14
2018-12-21T17:06:08.857Z,88.38
2018-12-21T17:08:37.619Z,88.96
2018-12-21T17:11:06.312Z,88.03
2018-12-21T17:13:35.524Z,87.92
2018-12-21T17:16:04.214Z,88.13
2018-12-21T17:18:33.524Z,88.06
2018-12-21T17:21:02.233Z,88.21
2018-12-21T17:23:31.115Z,88.43
2018-12-21T17:25:59.695Z,88.14
2018-12-21T17:28:28.299Z,88.40
2018-12-21T17:30:56.982Z,87.92
2018-12-21T17:33:25.654Z,88.37
2018-12-21T17:35:54.374Z,87.82
2018-12-21T17:38:23.089Z,87.43
2018-12-21T17:40:51.703Z,87.56
2018-12-21T17:43:20.524Z,87.90
2018-12-21T17:45:49.297Z,88.00
2018-12-21T17:48:17.965Z,87.62
2018-12-21T17:50:46.748Z,87.18
2018-12-21T17:53:15.437Z,86.86
2018-12-21T17:55:44.006Z,86.56
2018-12-21T17:58:13.015Z,86.49
2018-12-21T18:00:41.806Z,86.07
2018-12-21T18:03:19.420Z,85.63
2018-12-21T18:05:48.081Z,85.47
2018-12-21T18:08:16.814Z,85.36
2018-12-21T18:10:45.444Z,85.48
2018-12-21T18:13:14.096Z,85.79
2018-12-21T18:15:42.773Z,85.77
2018-12-21T18:18:11.375Z,85.35
2018-12-21T18:20:39.988Z,85.72
2018-12-21T18:23:10.140Z,85.50
2018-12-21T18:25:38.801Z,85.28
2018-12-21T18:28:11.006Z,85.37
2018-12-21T18:30:44.675Z,85.10
2018-12-21T18:33:14.596Z,85.14
2018-12-21T18:35:43.303Z,85.21
2018-12-21T18:38:15.875Z,85.32
2018-12-21T18:40:44.518Z,85.10
2018-12-21T18:43:13.190Z,84.99
2018-12-21T18:45:41.855Z,84.41
2018-12-21T18:48:10.501Z,84.54
2018-12-21T18:50:39.080Z,83.38
2018-12-21T18:53:07.811Z,83.33
2018-12-21T18:55:36.560Z,83.27
2018-12-21T18:58:05.273Z,83.25
2018-12-21T19:00:34.067Z,82.69
2018-12-21T19:03:02.764Z,82.43
2018-12-21T19:05:31.409Z,81.64
2018-12-21T19:08:00.109Z,81.73
2018-12-21T19:10:28.804Z,81.99
2018-12-21T19:12:57.551Z,81.77
2018-12-21T19:15:26.183Z,81.50
2018-12-21T19:17:54.855Z,81.82
2018-12-21T19:20:23.587Z,80.95
2018-12-21T19:22:52.225Z,80.77
2018-12-21T19:25:21.002Z,80.10
2018-12-21T19:27:49.707Z,80.13
2018-12-21T19:30:18.300Z,80.42
2018-12-21T19:32:47.054Z,79.74
2018-12-21T19:35:27.137Z,79.80
2018-12-21T19:37:49.364Z,79.32
2018-12-21T19:40:18.059Z,78.98
2018-12-21T19:42:46.684Z,80.00
2018-12-21T19:45:15.516Z,78.83
2018-12-21T19:47:44.211Z,78.58
2018-12-21T19:50:13.225Z,78.52
2018-12-21T19:52:41.924Z,78.92
2018-12-21T19:55:51.492Z,78.02
2018-12-21T19:58:20.083Z,78.53
2018-12-21T20:00:48.679Z,78.70
2018-12-21T20:03:17.345Z,78.89
2018-12-21T20:05:45.979Z,78.69
2018-12-21T20:08:14.590Z,78.63
2018-12-21T20:10:43.224Z,79.21
2018-12-21T20:13:11.958Z,78.80
2018-12-21T20:15:40.571Z,78.62
2018-12-21T20:18:09.215Z,78.94
2018-12-21T20:20:37.885Z,78.97
2018-12-21T20:23:06.708Z,78.62
2018-12-21T20:25:35.309Z,78.94
2018-12-21T20:28:04.052Z,78.98
2018-12-21T20:30:32.678Z,79.22
2018-12-21T20:33:01.441Z,79.61
2018-12-21T20:35:30.337Z,79.57
2018-12-21T20:37:59.316Z,79.42
2018-12-21T20:40:27.975Z,79.70
2018-12-21T20:42:56.671Z,79.65
2018-12-21T20:45:25.278Z,79.66
2018-12-21T20:47:53.963Z,79.67
2018-12-21T20:50:22.568Z,79.66
2018-12-21T20:52:51.180Z,80.02
2018-12-21T20:55:19.926Z,79.59
2018-12-21T20:57:51.279Z,79.95
2018-12-21T21:00:19.969Z,79.97
2018-12-21T21:02:48.669Z,80.14
2018-12-21T21:05:17.296Z,80.33
2018-12-21T21:07:46.016Z,80.51
2018-12-21T21:10:14.885Z,80.46
2018-12-21T21:12:43.496Z,80.43
2018-12-21T21:15:13.525Z,80.38
2018-12-21T21:17:42.234Z,80.42
2018-12-21T21:20:13.355Z,80.58
2018-12-21T21:22:42.163Z,80.39
2018-12-21T21:25:10.836Z,80.47
2018-12-21T21:27:39.583Z,80.02
2018-12-21T21:30:12.172Z,80.10
2018-12-21T21:32:40.821Z,80.15
2018-12-21T21:35:09.451Z,80.08
2018-12-21T21:37:38.179Z,80.09
2018-12-21T21:40:10.320Z,79.82
2018-12-21T21:42:39.234Z,79.56
2018-12-21T21:45:08.076Z,79.59
2018-12-21T21:47:36.817Z,79.52
2018-12-21T21:50:06.150Z,79.32
2018-12-21T21:52:34.879Z,78.78
2018-12-21T21:55:03.651Z,78.69
2018-12-21T21:57:39.172Z,78.87
2018-12-21T22:00:03.615Z,78.61
2018-12-21T22:02:32.214Z,78.72
2018-12-21T22:05:00.793Z,78.72
2018-12-21T22:07:29.467Z,78.42
2018-12-21T22:09:58.083Z,78.46
2018-12-21T22:12:26.754Z,78.82
2018-12-21T22:14:55.365Z,78.37
2018-12-21T22:17:23.997Z,78.73
2018-12-21T22:19:52.859Z,78.61
2018-12-21T22:22:21.489Z,78.33
2018-12-21T22:24:50.167Z,78.49
2018-12-21T22:27:19.019Z,78.99
2018-12-21T22:29:47.916Z,78.81
2018-12-21T22:32:16.631Z,78.66
2018-12-21T22:34:45.247Z,78.62
2018-12-21T22:37:13.997Z,78.73
2018-12-21T22:39:42.657Z,79.16
2018-12-21T22:42:11.391Z,79.17
2018-12-21T22:44:40.011Z,79.04
2018-12-21T22:47:08.677Z,79.04
2018-12-21T22:49:37.294Z,79.33
2018-12-21T22:52:05.939Z,79.02
2018-12-21T22:54:34.508Z,78.73
2018-12-21T22:57:03.370Z,78.76
2018-12-21T22:59:32.067Z,78.72
2018-12-21T23:02:00.731Z,79.04
2018-12-21T23:04:29.336Z,79.49
2018-12-21T23:06:58.164Z,78.93
2018-12-21T23:09:26.767Z,79.22
2018-12-21T23:11:55.400Z,79.18
2018-12-21T23:14:24.008Z,77.94
2018-12-21T23:16:58.911Z,78.40
2018-12-21T23:19:27.532Z,78.05
2018-12-21T23:21:56.339Z,77.41
2018-12-21T23:24:26.732Z,77.17
2018-12-21T23:26:55.416Z,77.18
2018-12-21T23:29:24.016Z,76.71
2018-12-21T23:31:52.679Z,77.03
2018-12-21T23:34:21.257Z,76.75
2018-12-21T23:36:49.866Z,76.88
2018-12-21T23:39:18.447Z,77.23
2018-12-21T23:41:47.128Z,77.03
2018-12-21T23:44:15.776Z,77.10
2018-12-21T23:46:44.489Z,77.40
2018-12-21T23:49:13.090Z,78.17
2018-12-21T23:51:41.755Z,77.08
2018-12-21T23:54:10.411Z,78.00
2018-12-21T23:56:39.035Z,78.16
2018-12-21T23:59:07.637Z,78.47
